createdAt,value
2018-12-21T00:02:01.591Z,19.70
2018-12-21T00:04:29.861Z,19.60
2018-12-21T00:06:58.015Z,19.60
2018-12-21T00:09:26.131Z,19.60
2018-12-21T00:11:54.633Z,19.60
2018-12-21T00:14:22.781Z,19.70
2018-12-21T00:16:50.938Z,19.60
2018-12-21T00:19:19.054Z,19.60
2018-12-21T00:21:47.180Z,19.60
2018-12-21T00:24:15.348Z,19.60
2018-12-21T00:26:43.501Z,19.60
2018-12-21T00:29:11.614Z,19.60
2018-12-21T00:31:45.462Z,19.60
2018-12-21T00:34:19.126Z,19.60
2018-12-21T00:36:53.020Z,19.60
2018-12-21T00:39:26.833Z,19.60
2018-12-21T00:41:55.124Z,19.60
2018-12-21T00:44:25.224Z,19.60
2018-12-21T00:46:55.331Z,19.60
2018-12-21T00:49:23.637Z,19.60
2018-12-21T00:51:51.814Z,19.60
2018-12-21T00:54:19.932Z,19.60
2018-12-21T00:56:48.060Z,19.60
2018-12-21T00:59:16.177Z,19.60
2018-12-21T01:01:44.338Z,19.60
2018-12-21T01:04:12.523Z,19.60
2018-12-21T01:06:40.648Z,19.60
2018-12-21T01:09:09.235Z,19.60
2018-12-21T01:11:37.354Z,19.50
2018-12-21T01:14:05.503Z,19.50
2018-12-21T01:16:33.640Z,19.50
2018-12-21T01:19:01.742Z,19.60
2018-12-21T01:21:29.914Z,19.60
2018-12-21T01:23:58.023Z,19.60
2018-12-21T01:26:26.179Z,19.60
2018-12-21T01:28:54.320Z,19.60
2018-12-21T01:31:22.445Z,19.60
2018-12-21T01:33:50.578Z,19.60
2018-12-21T01:36:18.729Z,19.60
2018-12-21T01:38:46.849Z,19.60
2018-12-21T01:41:14.995Z,19.60
2018-12-21T01:43:43.124Z,19.60
2018-12-21T01:46:11.246Z,19.60
2018-12-21T01:48:39.393Z,19.60
2018-12-21T01:51:07.517Z,19.60
2018-12-21T01:53:35.639Z,19.60
2018-12-21T01:56:03.854Z,19.60
2018-12-21T01:58:31.998Z,19.60
2018-12-21T02:01:00.207Z,19.60
2018-12-21T02:03:28.333Z,19.60
2018-12-21T02:05:56.440Z,19.50
2018-12-21T02:08:24.576Z,19.60
2018-12-21T02:10:52.681Z,19.60
2018-12-21T02:13:20.828Z,19.60
2018-12-21T02:15:48.936Z,19.60
2018-12-21T02:18:17.090Z,19.60
2018-12-21T02:20:45.215Z,19.60
2018-12-21T02:23:13.346Z,19.60
2018-12-21T02:25:41.465Z,19.60
2018-12-21T02:28:09.649Z,19.60
2018-12-21T02:30:37.770Z,19.60
2018-12-21T02:33:05.895Z,19.60
2018-12-21T02:35:34.042Z,19.60
2018-12-21T02:38:02.156Z,19.60
2018-12-21T02:40:30.309Z,19.60
2018-12-21T02:42:58.532Z,19.60
2018-12-21T02:45:26.651Z,19.60
2018-12-21T02:47:54.790Z,19.60
2018-12-21T02:50:22.933Z,19.60
2018-12-21T02:52:51.067Z,19.60
2018-12-21T02:55:19.185Z,19.60
2018-12-21T02:57:47.313Z,19.60
2018-12-21T03:00:15.448Z,19.60
2018-12-21T03:02:43.578Z,19.60
2018-12-21T03:05:11.715Z,19.60
2018-12-21T03:07:40.998Z,19.60
2018-12-21T03:10:09.148Z,19.60
2018-12-21T03:12:37.260Z,19.60
2018-12-21T03:15:05.788Z,19.60
2018-12-21T03:17:33.933Z,19.60
2018-12-21T03:20:02.177Z,19.60
2018-12-21T03:22:30.294Z,19.70
2018-12-21T03:24:58.413Z,19.60
2018-12-21T03:27:26.559Z,19.60
2018-12-21T03:29:54.709Z,19.60
2018-12-21T03:32:22.841Z,19.60
2018-12-21T03:34:51.105Z,19.60
2018-12-21T03:37:19.206Z,19.60
2018-12-21T03:39:47.340Z,19.60
2018-12-21T03:42:15.468Z,19.60
2018-12-21T03:44:43.587Z,19.60
2018-12-21T03:47:11.727Z,19.60
2018-12-21T03:49:39.873Z,19.60
2018-12-21T03:52:07.992Z,19.60
2018-12-21T03:54:36.129Z,19.60
2018-12-21T03:57:04.277Z,19.60
2018-12-21T03:59:32.398Z,19.60
2018-12-21T04:02:00.584Z,19.60
2018-12-21T04:04:28.715Z,19.60
2018-12-21T04:06:56.833Z,19.60
2018-12-21T04:09:24.950Z,19.60
2018-12-21T04:11:53.069Z,19.60
2018-12-21T04:14:21.594Z,19.60
2018-12-21T04:16:49.851Z,19.60
2018-12-21T04:19:18.028Z,19.60
2018-12-21T04:21:46.144Z,19.50
2018-12-21T04:24:14.442Z,19.50
2018-12-21T04:26:42.627Z,19.50
2018-12-21T04:29:10.787Z,19.50
2018-12-21T04:31:38.917Z,19.50
2018-12-21T04:34:07.018Z,19.50
2018-12-21T04:36:35.242Z,19.50
2018-12-21T04:39:05.189Z,19.50
2018-12-21T04:41:33.364Z,19.50
2018-12-21T04:44:01.599Z,19.50
2018-12-21T04:46:29.782Z,19.50
2018-12-21T04:48:57.936Z,19.50
2018-12-21T04:51:26.045Z,19.50
2018-12-21T04:53:54.165Z,19.50
2018-12-21T04:56:22.335Z,19.50
2018-12-21T04:58:50.468Z,19.50
2018-12-21T05:01:18.595Z,19.50
2018-12-21T05:03:46.783Z,19.50
2018-12-21T05:06:14.929Z,19.50
2018-12-21T05:08:43.075Z,19.50
2018-12-21T05:11:11.272Z,19.50
2018-12-21T05:13:39.902Z,19.50
2018-12-21T05:16:08.116Z,19.50
2018-12-21T05:18:36.233Z,19.50
2018-12-21T05:21:04.366Z,19.50
2018-12-21T05:23:32.504Z,19.50
2018-12-21T05:26:00.685Z,19.50
2018-12-21T05:28:28.846Z,19.50
2018-12-21T05:30:56.972Z,19.50
2018-12-21T05:33:25.186Z,19.50
2018-12-21T05:35:53.343Z,19.50
2018-12-21T05:38:21.500Z,19.50
2018-12-21T05:40:49.605Z,19.40
2018-12-21T05:43:17.764Z,19.40
2018-12-21T05:45:45.874Z,19.40
2018-12-21T05:48:14.000Z,19.40
2018-12-21T05:50:42.121Z,19.40
2018-12-21T05:53:11.037Z,19.40
2018-12-21T05:55:39.245Z,19.40
2018-12-21T05:58:07.394Z,19.40
2018-12-21T06:00:35.815Z,19.40
2018-12-21T06:03:03.946Z,19.40
2018-12-21T06:05:32.056Z,19.50
2018-12-21T06:08:00.276Z,19.50
2018-12-21T06:10:28.392Z,19.60
2018-12-21T06:12:57.229Z,19.60
2018-12-21T06:15:25.410Z,19.60
2018-12-21T06:17:53.555Z,19.60
2018-12-21T06:20:21.777Z,19.60
2018-12-21T06:22:49.899Z,19.60
2018-12-21T06:25:18.004Z,19.60
2018-12-21T06:27:46.153Z,19.60
2018-12-21T06:30:14.294Z,19.60
2018-12-21T06:32:42.433Z,19.70
2018-12-21T06:35:10.541Z,19.70
2018-12-21T06:37:38.732Z,19.70
2018-12-21T06:40:06.874Z,19.70
2018-12-21T06:42:35.024Z,19.70
2018-12-21T06:45:03.172Z,19.70
2018-12-21T06:47:31.274Z,19.70
2018-12-21T06:49:59.432Z,19.70
2018-12-21T06:52:27.550Z,19.60
2018-12-21T06:54:55.655Z,19.60
2018-12-21T06:57:23.795Z,19.70
2018-12-21T06:59:52.150Z,19.60
2018-12-21T07:02:20.276Z,19.70
2018-12-21T07:04:48.389Z,19.70
2018-12-21T07:07:16.538Z,19.60
2018-12-21T07:09:44.675Z,19.70
2018-12-21T07:12:12.941Z,19.60
2018-12-21T07:14:41.085Z,19.60
2018-12-21T07:17:09.205Z,19.60
2018-12-21T07:19:37.323Z,19.60
2018-12-21T07:22:05.490Z,19.60
2018-12-21T07:24:33.603Z,19.70
2018-12-21T07:27:01.731Z,19.60
2018-12-21T07:29:29.932Z,19.60
2018-12-21T07:31:58.137Z,19.60
2018-12-21T07:34:56.101Z,19.70
2018-12-21T07:37:24.242Z,19.80
2018-12-21T07:39:52.430Z,19.90
2018-12-21T07:42:20.571Z,19.90
2018-12-21T07:44:48.736Z,19.90
2018-12-21T07:47:16.854Z,19.90
2018-12-21T07:49:45.013Z,19.90
2018-12-21T07:52:13.136Z,19.90
2018-12-21T07:54:41.269Z,19.90
2018-12-21T07:57:09.440Z,19.90
2018-12-21T07:59:37.552Z,19.90
2018-12-21T08:02:05.748Z,19.90
2018-12-21T08:04:33.900Z,19.90
2018-12-21T08:07:02.020Z,19.90
2018-12-21T08:09:30.134Z,19.90
2018-12-21T08:11:58.337Z,19.90
2018-12-21T08:14:26.448Z,19.90
2018-12-21T08:16:54.558Z,19.90
2018-12-21T08:19:22.729Z,19.90
2018-12-21T08:21:50.853Z,19.90
2018-12-21T08:24:18.961Z,19.90
2018-12-21T08:26:47.106Z,19.90
2018-12-21T08:29:15.239Z,19.90
2018-12-21T08:31:43.361Z,19.90
2018-12-21T08:34:11.575Z,19.90
2018-12-21T08:36:39.890Z,19.90
2018-12-21T08:39:08.020Z,19.90
2018-12-21T08:41:36.185Z,19.90
2018-12-21T08:44:04.327Z,19.90
2018-12-21T08:46:32.433Z,20.00
2018-12-21T08:49:00.560Z,19.90
2018-12-21T08:51:28.678Z,20.00
2018-12-21T08:53:56.818Z,19.90
2018-12-21T08:56:25.079Z,20.00
2018-12-21T08:58:53.197Z,19.90
2018-12-21T09:01:21.318Z,19.90
2018-12-21T09:03:49.471Z,19.90
2018-12-21T09:06:18.520Z,19.90
2018-12-21T09:08:47.932Z,19.90
2018-12-21T09:11:16.033Z,19.90
2018-12-21T09:13:44.181Z,19.90
2018-12-21T09:16:12.289Z,19.90
2018-12-21T09:18:40.446Z,19.90
2018-12-21T09:21:08.591Z,19.90
2018-12-21T09:23:36.713Z,19.90
2018-12-21T09:26:04.878Z,20.00
2018-12-21T09:28:33.009Z,20.00
2018-12-21T09:31:01.132Z,20.00
2018-12-21T09:33:29.270Z,19.90
2018-12-21T09:35:57.393Z,19.90
2018-12-21T09:38:25.781Z,20.00
2018-12-21T09:40:53.889Z,19.90
2018-12-21T09:43:22.046Z,19.90
2018-12-21T09:45:50.164Z,19.90
2018-12-21T09:48:19.149Z,19.90
2018-12-21T09:50:47.289Z,20.00
2018-12-21T09:53:16.190Z,20.00
2018-12-21T09:55:44.329Z,20.00
2018-12-21T09:58:12.479Z,19.90
2018-12-21T10:00:40.584Z,20.00
2018-12-21T10:03:08.736Z,20.00
2018-12-21T10:05:36.941Z,20.00
2018-12-21T10:08:05.087Z,20.00
2018-12-21T10:10:33.202Z,20.00
2018-12-21T10:13:01.338Z,20.00
2018-12-21T10:15:29.567Z,20.00
2018-12-21T10:17:57.720Z,20.00
2018-12-21T10:20:25.833Z,20.00
2018-12-21T10:22:54.558Z,20.00
2018-12-21T10:25:22.672Z,20.00
2018-12-21T10:27:50.814Z,20.00
2018-12-21T10:30:25.266Z,20.00
2018-12-21T10:32:53.723Z,20.10
2018-12-21T10:35:21.857Z,20.00
2018-12-21T10:37:49.973Z,20.00
2018-12-21T10:40:18.138Z,20.00
2018-12-21T10:42:46.252Z,20.10
2018-12-21T10:45:14.429Z,20.00
2018-12-21T10:47:42.582Z,20.10
2018-12-21T10:50:11.190Z,20.10
2018-12-21T10:52:39.330Z,20.10
2018-12-21T10:55:07.438Z,20.10
2018-12-21T10:57:35.616Z,20.10
2018-12-21T11:00:07.784Z,20.10
2018-12-21T11:02:35.970Z,20.10
2018-12-21T11:05:05.555Z,20.10
2018-12-21T11:07:33.688Z,20.10
2018-12-21T11:10:01.847Z,20.10
2018-12-21T11:12:29.993Z,20.10
2018-12-21T11:14:58.107Z,20.10
2018-12-21T11:17:26.230Z,20.10
2018-12-21T11:19:54.411Z,20.10
2018-12-21T11:22:22.531Z,20.10
2018-12-21T11:24:50.649Z,20.10
2018-12-21T11:27:18.805Z,20.10
2018-12-21T11:29:46.957Z,20.10
2018-12-21T11:32:15.932Z,20.20
2018-12-21T11:34:44.089Z,20.10
2018-12-21T11:37:12.314Z,20.10
2018-12-21T11:39:40.425Z,20.20
2018-12-21T11:42:08.571Z,20.10
2018-12-21T11:44:36.811Z,20.10
2018-12-21T11:47:04.909Z,20.10
2018-12-21T11:49:33.094Z,20.20
2018-12-21T11:52:01.200Z,20.20
2018-12-21T11:54:29.320Z,20.20
2018-12-21T11:56:57.477Z,20.20
2018-12-21T11:59:25.616Z,20.20
2018-12-21T12:01:53.978Z,20.20
2018-12-21T12:04:22.103Z,20.20
2018-12-21T12:06:50.278Z,20.20
2018-12-21T12:09:18.434Z,20.20
2018-12-21T12:11:46.563Z,20.20
2018-12-21T12:14:14.750Z,20.20
2018-12-21T12:16:42.903Z,20.20
2018-12-21T12:19:11.029Z,20.20
2018-12-21T12:21:39.167Z,20.10
2018-12-21T12:24:07.383Z,20.10
2018-12-21T12:26:35.498Z,20.10
2018-12-21T12:29:03.633Z,20.10
2018-12-21T12:31:31.825Z,20.20
2018-12-21T12:33:59.953Z,20.20
2018-12-21T12:36:28.053Z,20.20
2018-12-21T12:38:56.208Z,20.10
2018-12-21T12:41:24.328Z,20.10
2018-12-21T12:43:52.437Z,20.20
2018-12-21T12:46:20.592Z,20.10
2018-12-21T12:48:48.722Z,20.10
2018-12-21T12:51:16.917Z,20.10
2018-12-21T12:53:45.731Z,20.10
2018-12-21T12:56:13.866Z,20.10
2018-12-21T12:58:41.972Z,20.10
2018-12-21T13:01:11.116Z,20.10
2018-12-21T13:03:39.240Z,20.10
2018-12-21T13:06:07.354Z,20.10
2018-12-21T13:08:35.514Z,20.10
2018-12-21T13:11:03.791Z,20.10
2018-12-21T13:13:31.942Z,20.10
2018-12-21T13:16:00.862Z,20.20
2018-12-21T13:18:28.979Z,20.10
2018-12-21T13:20:57.163Z,20.20
2018-12-21T13:23:25.905Z,20.10
2018-12-21T13:25:54.009Z,20.10
2018-12-21T13:28:22.154Z,20.10
2018-12-21T13:30:50.316Z,20.10
2018-12-21T13:33:18.440Z,20.10
2018-12-21T13:35:46.559Z,20.10
2018-12-21T13:38:14.687Z,20.10
2018-12-21T13:40:42.825Z,20.10
2018-12-21T13:43:12.113Z,20.10
2018-12-21T13:45:41.239Z,20.10
2018-12-21T13:48:09.356Z,20.10
2018-12-21T13:50:37.474Z,20.10
2018-12-21T13:53:05.626Z,20.10
2018-12-21T13:55:33.999Z,20.10
2018-12-21T13:58:02.190Z,20.10
2018-12-21T14:00:30.379Z,20.10
2018-12-21T14:02:58.507Z,20.10
2018-12-21T14:05:26.619Z,20.10
2018-12-21T14:07:55.744Z,20.10
2018-12-21T14:10:23.840Z,20.10
2018-12-21T14:12:51.959Z,20.10
2018-12-21T14:15:20.103Z,20.10
2018-12-21T14:17:48.231Z,20.10
2018-12-21T14:20:16.423Z,20.10
2018-12-21T14:22:44.581Z,20.10
2018-12-21T14:25:12.712Z,20.10
2018-12-21T14:27:40.856Z,20.10
2018-12-21T14:30:08.981Z,20.00
2018-12-21T14:32:37.119Z,20.00
2018-12-21T14:35:06.946Z,20.00
2018-12-21T14:37:35.088Z,20.00
2018-12-21T14:40:03.923Z,20.10
2018-12-21T14:42:32.034Z,20.10
2018-12-21T14:45:00.244Z,20.00
2018-12-21T14:47:28.400Z,20.00
2018-12-21T14:49:56.538Z,20.10
2018-12-21T14:52:24.670Z,20.00
2018-12-21T14:54:52.818Z,20.00
2018-12-21T14:57:21.007Z,20.00
2018-12-21T14:59:49.201Z,20.00
2018-12-21T15:02:17.301Z,20.00
2018-12-21T15:04:47.021Z,20.00
2018-12-21T15:07:15.169Z,20.00
2018-12-21T15:09:43.312Z,20.00
2018-12-21T15:12:11.428Z,20.00
2018-12-21T15:14:39.692Z,20.00
2018-12-21T15:17:09.543Z,20.00
2018-12-21T15:19:37.748Z,20.00
2018-12-21T15:22:05.998Z,20.00
2018-12-21T15:24:34.115Z,20.00
2018-12-21T15:27:02.236Z,20.00
2018-12-21T15:29:30.459Z,20.00
2018-12-21T15:31:58.568Z,20.00
2018-12-21T15:34:26.705Z,20.00
2018-12-21T15:36:56.104Z,20.00
2018-12-21T15:39:24.242Z,20.00
2018-12-21T15:41:52.417Z,20.00
2018-12-21T15:44:20.554Z,20.00
2018-12-21T15:46:48.738Z,20.00
2018-12-21T15:49:16.857Z,20.00
2018-12-21T15:51:44.971Z,20.00
2018-12-21T15:54:13.117Z,20.00
2018-12-21T15:56:41.870Z,20.00
2018-12-21T15:59:10.018Z,20.00
2018-12-21T16:01:38.913Z,20.00
2018-12-21T16:04:07.038Z,20.00
2018-12-21T16:06:35.743Z,20.00
2018-12-21T16:09:06.358Z,20.00
2018-12-21T16:11:34.499Z,19.90
2018-12-21T16:14:03.567Z,19.90
2018-12-21T16:16:31.685Z,19.90
2018-12-21T16:19:00.919Z,19.90
2018-12-21T16:21:29.041Z,19.90
2018-12-21T16:23:57.624Z,19.90
2018-12-21T16:26:25.797Z,19.90
2018-12-21T16:28:53.924Z,19.90
2018-12-21T16:31:22.050Z,19.90
2018-12-21T16:33:50.195Z,19.90
2018-12-21T16:36:18.309Z,19.90
2018-12-21T16:38:46.460Z,19.90
2018-12-21T16:41:14.617Z,19.90
2018-12-21T16:43:42.751Z,19.80
2018-12-21T16:46:10.875Z,19.80
2018-12-21T16:48:39.087Z,19.80
2018-12-21T16:51:07.220Z,19.80
2018-12-21T16:53:36.003Z,19.80
2018-12-21T16:56:12.201Z,19.80
2018-12-21T16:58:34.311Z,19.80
2018-12-21T17:01:02.430Z,19.80
2018-12-21T17:03:30.564Z,19.70
2018-12-21T17:05:59.738Z,19.70
2018-12-21T17:08:28.056Z,19.60
2018-12-21T17:10:56.170Z,19.60
2018-12-21T17:13:24.333Z,19.60
2018-12-21T17:15:52.455Z,19.60
2018-12-21T17:18:20.613Z,19.60
2018-12-21T17:20:48.889Z,19.70
2018-12-21T17:23:16.994Z,19.70
2018-12-21T17:25:45.151Z,19.60
2018-12-21T17:28:13.271Z,19.70
2018-12-21T17:30:41.446Z,19.70
2018-12-21T17:33:10.070Z,19.70
2018-12-21T17:35:38.196Z,19.70
2018-12-21T17:38:06.356Z,19.70
2018-12-21T17:40:34.483Z,19.70
2018-12-21T17:43:02.631Z,19.70
2018-12-21T17:45:30.810Z,19.80
2018-12-21T17:47:58.969Z,19.80
2018-12-21T17:50:27.109Z,19.70
2018-12-21T17:52:55.232Z,19.70
2018-12-21T17:55:24.043Z,19.70
2018-12-21T17:57:52.984Z,19.80
2018-12-21T18:00:21.108Z,19.80
2018-12-21T18:02:50.076Z,19.80
2018-12-21T18:05:18.667Z,19.80
2018-12-21T18:07:46.821Z,19.80
2018-12-21T18:10:14.988Z,19.80
2018-12-21T18:12:43.106Z,19.80
2018-12-21T18:15:11.225Z,19.80
2018-12-21T18:17:39.447Z,19.80
2018-12-21T18:20:10.334Z,19.80
2018-12-21T18:22:38.474Z,19.80
2018-12-21T18:25:11.378Z,19.70
2018-12-21T18:27:39.509Z,19.70
2018-12-21T18:30:17.606Z,19.70
2018-12-21T18:32:45.731Z,19.70
2018-12-21T18:35:14.004Z,19.70
2018-12-21T18:37:46.116Z,19.70
2018-12-21T18:40:14.235Z,19.70
2018-12-21T18:42:42.402Z,19.70
2018-12-21T18:45:10.523Z,19.70
2018-12-21T18:47:38.647Z,19.70
2018-12-21T18:50:09.799Z,19.80
2018-12-21T18:52:37.994Z,19.70
2018-12-21T18:55:10.567Z,19.70
2018-12-21T18:57:38.766Z,19.70
2018-12-21T19:00:11.218Z,19.70
2018-12-21T19:02:39.340Z,19.70
2018-12-21T19:05:07.454Z,19.70
2018-12-21T19:07:35.593Z,19.70
2018-12-21T19:10:04.890Z,19.70
2018-12-21T19:12:33.041Z,19.70
2018-12-21T19:15:01.181Z,19.70
2018-12-21T19:17:29.348Z,19.60
2018-12-21T19:19:57.471Z,19.60
2018-12-21T19:22:25.588Z,19.70
2018-12-21T19:24:53.730Z,19.70
2018-12-21T19:27:21.894Z,19.70
2018-12-21T19:29:50.051Z,19.70
2018-12-21T19:32:18.177Z,19.70
2018-12-21T19:34:48.538Z,19.70
2018-12-21T19:37:16.657Z,19.70
2018-12-21T19:39:44.815Z,19.70
2018-12-21T19:42:12.997Z,19.70
2018-12-21T19:44:41.143Z,19.70
2018-12-21T19:47:09.258Z,19.70
2018-12-21T19:49:37.426Z,19.70
2018-12-21T19:52:05.543Z,19.70
2018-12-21T19:54:33.657Z,19.70
2018-12-21T19:57:05.112Z,19.70
2018-12-21T19:59:33.209Z,19.70
2018-12-21T20:02:01.332Z,19.70
2018-12-21T20:04:29.454Z,19.70
2018-12-21T20:06:57.574Z,19.70
2018-12-21T20:09:25.713Z,19.80
2018-12-21T20:11:53.891Z,19.70
2018-12-21T20:14:22.129Z,19.70
2018-12-21T20:16:50.323Z,19.70
2018-12-21T20:19:18.474Z,19.70
2018-12-21T20:21:46.636Z,19.60
2018-12-21T20:24:14.751Z,19.70
2018-12-21T20:26:45.286Z,19.80
2018-12-21T20:29:13.405Z,19.80
2018-12-21T20:31:41.529Z,19.80
2018-12-21T20:34:09.669Z,19.80
2018-12-21T20:36:37.789Z,19.80
2018-12-21T20:39:09.894Z,19.80
2018-12-21T20:41:38.411Z,19.80
2018-12-21T20:44:06.558Z,19.80
2018-12-21T20:46:34.957Z,19.80
2018-12-21T20:49:03.074Z,19.80
2018-12-21T20:51:31.238Z,19.80
2018-12-21T20:53:59.366Z,19.90
2018-12-21T20:56:27.487Z,19.80
2018-12-21T20:58:56.436Z,19.80
2018-12-21T21:01:25.526Z,19.90
2018-12-21T21:03:53.705Z,19.80
2018-12-21T21:06:21.954Z,19.90
2018-12-21T21:08:50.061Z,19.90
2018-12-21T21:11:24.284Z,19.80
2018-12-21T21:13:48.892Z,19.90
2018-12-21T21:16:17.014Z,19.80
2018-12-21T21:18:45.175Z,19.80
2018-12-21T21:21:13.316Z,19.80
2018-12-21T21:23:41.511Z,19.80
2018-12-21T21:26:09.769Z,19.80
2018-12-21T21:28:38.150Z,19.80
2018-12-21T21:31:06.275Z,19.90
2018-12-21T21:33:34.392Z,19.90
2018-12-21T21:36:02.582Z,19.90
2018-12-21T21:38:30.696Z,19.90
2018-12-21T21:40:58.813Z,19.90
2018-12-21T21:43:26.973Z,19.90
2018-12-21T21:45:55.092Z,20.00
2018-12-21T21:48:23.210Z,19.90
2018-12-21T21:50:51.390Z,20.00
2018-12-21T21:53:19.507Z,20.00
2018-12-21T21:55:47.632Z,20.00
2018-12-21T21:58:16.371Z,19.90
2018-12-21T22:00:44.484Z,20.00
2018-12-21T22:03:12.669Z,20.00
2018-12-21T22:05:41.031Z,20.00
2018-12-21T22:08:09.137Z,20.00
2018-12-21T22:10:37.257Z,19.90
2018-12-21T22:13:05.399Z,19.90
2018-12-21T22:15:33.518Z,19.90
2018-12-21T22:18:01.733Z,19.90
2018-12-21T22:20:29.852Z,19.90
2018-12-21T22:22:57.989Z,20.20
2018-12-21T22:25:26.155Z,21.10
2018-12-21T22:27:54.285Z,22.10
2018-12-21T22:30:22.467Z,23.20
2018-12-21T22:32:51.671Z,24.00
2018-12-21T22:35:19.778Z,24.40
2018-12-21T22:37:47.898Z,24.70
2018-12-21T22:40:16.056Z,24.90
2018-12-21T22:42:44.166Z,25.10
2018-12-21T22:45:12.351Z,25.10
2018-12-21T22:47:40.462Z,25.00
2018-12-21T22:50:08.596Z,25.00
2018-12-21T22:52:37.522Z,24.90
2018-12-21T22:55:06.997Z,24.60
2018-12-21T22:57:36.125Z,24.50
2018-12-21T23:00:10.166Z,24.30
2018-12-21T23:02:38.320Z,24.10
2018-12-21T23:05:06.469Z,24.00
2018-12-21T23:07:34.696Z,24.00
2018-12-21T23:10:03.091Z,23.80
2018-12-21T23:12:31.254Z,23.70
2018-12-21T23:14:59.363Z,23.50
2018-12-21T23:17:27.486Z,23.40
2018-12-21T23:19:55.688Z,23.20
2018-12-21T23:22:31.079Z,23.10
2018-12-21T23:24:59.254Z,23.00
2018-12-21T23:27:27.383Z,22.90
2018-12-21T23:29:55.563Z,22.80
2018-12-21T23:32:23.711Z,22.70
2018-12-21T23:34:51.893Z,22.60
2018-12-21T23:37:20.002Z,22.50
2018-12-21T23:39:49.288Z,22.40
2018-12-21T23:42:18.083Z,22.30
2018-12-21T23:44:46.198Z,22.20
2018-12-21T23:47:14.415Z,22.10
2018-12-21T23:49:44.129Z,22.10
2018-12-21T23:52:12.251Z,22.00
2018-12-21T23:54:40.361Z,22.00
2018-12-21T23:57:08.513Z,21.90
2018-12-21T23:59:36.625Z,21.80
